sensor_id;sensor_type;location;lat;lon;timestamp;temperature;humidity
67502;SHT30;54349;52.528;19.760;2023-08-06T00:14:00;20.15;61.09
67502;SHT30;54349;52.528;19.760;2023-08-06T00:16:34;20.38;60.84
67502;SHT30;54349;52.528;19.760;2023-08-06T00:22:36;20.75;60.00
67502;SHT30;54349;52.528;19.760;2023-08-06T00:25:09;20.45;59.46
67502;SHT30;54349;52.528;19.760;2023-08-06T00:30:52;20.42;60.71
67502;SHT30;54349;52.528;19.760;2023-08-06T02:18:28;20.64;60.68
67502;SHT30;54349;52.528;19.760;2023-08-06T02:21:01;20.30;60.78
67502;SHT30;54349;52.528;19.760;2023-08-06T02:23:29;20.30;61.63
67502;SHT30;54349;52.528;19.760;2023-08-06T02:26:01;20.49;61.55
67502;SHT30;54349;52.528;19.760;2023-08-06T02:28:32;20.68;61.07
67502;SHT30;54349;52.528;19.760;2023-08-06T02:31:01;20.85;60.74
67502;SHT30;54349;52.528;19.760;2023-08-06T02:33:50;20.77;60.05
67502;SHT30;54349;52.528;19.760;2023-08-06T02:36:18;20.37;60.00
67502;SHT30;54349;52.528;19.760;2023-08-06T02:38:46;20.11;61.14
67502;SHT30;54349;52.528;19.760;2023-08-06T02:44:19;20.47;61.10
67502;SHT30;54349;52.528;19.760;2023-08-06T04:15:30;20.37;60.83
67502;SHT30;54349;52.528;19.760;2023-08-06T04:21:20;20.14;62.34
67502;SHT30;54349;52.528;19.760;2023-08-06T04:24:02;20.36;62.04
67502;SHT30;54349;52.528;19.760;2023-08-06T04:26:31;20.57;61.80
67502;SHT30;54349;52.528;19.760;2023-08-06T04:29:00;20.75;61.54
67502;SHT30;54349;52.528;19.760;2023-08-06T04:31:30;20.71;61.48
67502;SHT30;54349;52.528;19.760;2023-08-06T05:03:00;20.44;62.55
67502;SHT30;54349;52.528;19.760;2023-08-06T05:05:30;20.63;62.39
67502;SHT30;54349;52.528;19.760;2023-08-06T05:08:00;20.59;60.70
67502;SHT30;54349;52.528;19.760;2023-08-06T05:10:28;20.25;61.40
67502;SHT30;54349;52.528;19.760;2023-08-06T05:12:58;20.03;62.38
67502;SHT30;54349;52.528;19.760;2023-08-06T05:15:30;20.19;62.57
67502;SHT30;54349;52.528;19.760;2023-08-06T05:18:01;20.42;62.28
67502;SHT30;54349;52.528;19.760;2023-08-06T05:20:30;20.62;62.00
67502;SHT30;54349;52.528;19.760;2023-08-06T07:08:04;20.36;62.20
67502;SHT30;54349;52.528;19.760;2023-08-06T07:10:33;20.56;61.83
67502;SHT30;54349;52.528;19.760;2023-08-06T07:13:02;20.70;61.70
67502;SHT30;54349;52.528;19.760;2023-08-06T07:15:30;20.50;61.42
67502;SHT30;54349;52.528;19.760;2023-08-06T07:18:06;20.18;61.40
67502;SHT30;54349;52.528;19.760;2023-08-06T07:20:57;19.95;61.82
67502;SHT30;54349;52.528;19.760;2023-08-06T07:23:27;20.09;62.33
67502;SHT30;54349;52.528;19.760;2023-08-06T09:09:49;20.08;63.83
67502;SHT30;54349;52.528;19.760;2023-08-06T09:12:20;20.35;63.85
67502;SHT30;54349;52.528;19.760;2023-08-06T09:14:50;20.59;63.42
67502;SHT30;54349;52.528;19.760;2023-08-06T09:20:37;20.98;63.43
67502;SHT30;54349;52.528;19.760;2023-08-06T09:23:07;20.75;63.22
67502;SHT30;54349;52.528;19.760;2023-08-06T09:25:44;20.47;62.60
67502;SHT30;54349;52.528;19.760;2023-08-06T09:28:13;20.27;62.61
67502;SHT30;54349;52.528;19.760;2023-08-06T09:30:41;20.39;63.69
67502;SHT30;54349;52.528;19.760;2023-08-06T09:33:10;20.65;63.35
67502;SHT30;54349;52.528;19.760;2023-08-06T09:36:07;20.91;62.85
67502;SHT30;54349;52.528;19.760;2023-08-06T09:38:39;21.13;62.72
67502;SHT30;54349;52.528;19.760;2023-08-06T09:41:10;21.11;63.51
67502;SHT30;54349;52.528;19.760;2023-08-06T09:44:00;20.78;63.30
67502;SHT30;54349;52.528;19.760;2023-08-06T09:46:29;20.49;62.60
67502;SHT30;54349;52.528;19.760;2023-08-06T09:49:01;20.27;62.21
67502;SHT30;54349;52.528;19.760;2023-08-06T13:11:31;20.86;66.45
67502;SHT30;54349;52.528;19.760;2023-08-06T13:14:23;20.57;65.15
67502;SHT30;54349;52.528;19.760;2023-08-06T13:17:06;20.33;64.25
67502;SHT30;54349;52.528;19.760;2023-08-06T13:19:49;20.14;63.53
67502;SHT30;54349;52.528;19.760;2023-08-06T13:22:28;19.91;63.66
67502;SHT30;54349;52.528;19.760;2023-08-06T13:24:56;19.99;65.46
67502;SHT30;54349;52.528;19.760;2023-08-06T13:27:31;20.31;65.83
67502;SHT30;54349;52.528;19.760;2023-08-06T13:53:02;20.47;64.88
67502;SHT30;54349;52.528;19.760;2023-08-06T13:55:30;20.71;64.50
67502;SHT30;54349;52.528;19.760;2023-08-06T13:58:00;20.85;64.24
67502;SHT30;54349;52.528;19.760;2023-08-06T14:00:28;20.67;63.83
67502;SHT30;54349;52.528;19.760;2023-08-06T14:03:01;20.41;63.79
67502;SHT30;54349;52.528;19.760;2023-08-06T14:05:30;20.19;63.05
67502;SHT30;54349;52.528;19.760;2023-08-06T14:08:00;19.96;62.25
67502;SHT30;54349;52.528;19.760;2023-08-06T14:10:28;19.92;64.14
67502;SHT30;54349;52.528;19.760;2023-08-06T14:13:00;20.18;64.41
67502;SHT30;54349;52.528;19.760;2023-08-06T14:18:38;20.78;63.59
67502;SHT30;54349;52.528;19.760;2023-08-06T14:21:07;20.97;62.65
67502;SHT30;54349;52.528;19.760;2023-08-06T14:23:36;20.81;62.70
67502;SHT30;54349;52.528;19.760;2023-08-06T20:08:55;20.42;61.32
67502;SHT30;54349;52.528;19.760;2023-08-06T20:11:24;20.61;61.01
67502;SHT30;54349;52.528;19.760;2023-08-06T20:13:52;20.76;60.44
67502;SHT30;54349;52.528;19.760;2023-08-06T20:16:23;20.53;59.52
67502;SHT30;54349;52.528;19.760;2023-08-06T20:18:54;20.22;60.62
67502;SHT30;54349;52.528;19.760;2023-08-06T20:21:30;20.32;61.23
67502;SHT30;54349;52.528;19.760;2023-08-06T20:24:13;20.56;60.99
67502;SHT30;54349;52.528;19.760;2023-08-06T20:26:42;20.76;60.75
67502;SHT30;54349;52.528;19.760;2023-08-06T21:03:58;20.67;60.19
67502;SHT30;54349;52.528;19.760;2023-08-06T21:06:27;20.72;59.09
67502;SHT30;54349;52.528;19.760;2023-08-06T21:08:59;20.34;58.82
67502;SHT30;54349;52.528;19.760;2023-08-06T21:11:27;20.06;60.11
67502;SHT30;54349;52.528;19.760;2023-08-06T21:13:58;20.21;60.63
67502;SHT30;54349;52.528;19.760;2023-08-06T21:16:28;20.44;60.32
67502;SHT30;54349;52.528;19.760;2023-08-06T21:19:00;20.64;60.01
67502;SHT30;54349;52.528;19.760;2023-08-06T21:21:50;20.82;59.61
67502;SHT30;54349;52.528;19.760;2023-08-06T21:24:32;20.63;58.24
67502;SHT30;54349;52.528;19.760;2023-08-06T21:27:01;20.28;59.39
67502;SHT30;54349;52.528;19.760;2023-08-06T21:29:43;20.35;60.17
67502;SHT30;54349;52.528;19.760;2023-08-06T21:32:23;20.59;59.95
67502;SHT30;54349;52.528;19.760;2023-08-06T21:34:56;20.79;59.61
67502;SHT30;54349;52.528;19.760;2023-08-06T21:37:27;20.92;59.09
